createdAt,value
2019-03-09T00:02:23.641Z,5.70
2019-03-09T00:04:50.915Z,5.70
2019-03-09T00:07:18.179Z,5.60
2019-03-09T00:09:45.644Z,5.50
2019-03-09T00:12:12.991Z,5.50
2019-03-09T00:14:40.346Z,5.40
2019-03-09T00:17:07.727Z,5.30
2019-03-09T00:19:35.198Z,5.40
2019-03-09T00:22:02.555Z,5.30
2019-03-09T00:24:38.824Z,5.30
2019-03-09T00:27:34.570Z,5.30
2019-03-09T00:30:21.875Z,5.30
2019-03-09T00:32:49.133Z,5.30
2019-03-09T00:35:16.370Z,5.40
2019-03-09T00:37:43.642Z,5.40
2019-03-09T00:40:12.351Z,5.40
2019-03-09T00:42:41.851Z,5.30
2019-03-09T00:45:09.011Z,5.30
2019-03-09T00:47:36.383Z,5.40
2019-03-09T00:50:04.102Z,5.60
2019-03-09T00:52:31.354Z,5.70
2019-03-09T00:54:58.607Z,5.70
2019-03-09T00:57:25.987Z,5.80
2019-03-09T00:59:55.590Z,5.70
2019-03-09T01:02:22.995Z,5.40
2019-03-09T01:04:50.230Z,5.40
2019-03-09T01:07:17.590Z,5.40
2019-03-09T01:09:44.838Z,5.50
2019-03-09T01:12:12.107Z,5.50
2019-03-09T01:14:39.378Z,5.40
2019-03-09T01:17:06.649Z,5.40
2019-03-09T01:19:33.890Z,5.50
2019-03-09T01:22:01.263Z,5.40
2019-03-09T01:24:28.642Z,5.40
2019-03-09T01:26:55.883Z,5.40
2019-03-09T01:29:23.142Z,5.10
2019-03-09T01:31:50.399Z,5.10
2019-03-09T01:34:17.670Z,5.20
2019-03-09T01:36:44.942Z,5.20
2019-03-09T01:39:12.310Z,5.40
2019-03-09T01:41:39.651Z,5.40
2019-03-09T01:44:07.013Z,5.30
2019-03-09T01:46:34.371Z,5.10
2019-03-09T01:49:01.614Z,5.10
2019-03-09T01:51:28.956Z,5.20
2019-03-09T01:53:57.279Z,5.10
2019-03-09T01:56:24.666Z,5.30
2019-03-09T01:58:52.042Z,5.20
2019-03-09T02:01:19.297Z,5.10
2019-03-09T02:03:46.541Z,5.00
2019-03-09T02:06:13.799Z,5.00
2019-03-09T02:08:41.058Z,5.00
2019-03-09T02:11:08.388Z,5.00
2019-03-09T02:13:36.034Z,4.90
2019-03-09T02:16:03.303Z,4.90
2019-03-09T02:18:30.534Z,5.00
2019-03-09T02:20:57.935Z,5.00
2019-03-09T02:23:25.279Z,5.10
2019-03-09T02:25:52.544Z,5.20
2019-03-09T02:28:19.912Z,5.20
2019-03-09T02:30:47.287Z,5.10
2019-03-09T02:33:14.648Z,5.10
2019-03-09T02:35:41.926Z,5.00
2019-03-09T02:38:25.403Z,5.00
2019-03-09T02:40:53.086Z,5.00
2019-03-09T02:43:20.328Z,5.00
2019-03-09T02:45:47.703Z,5.00
2019-03-09T02:48:14.959Z,5.00
2019-03-09T02:50:54.666Z,4.90
2019-03-09T02:53:22.539Z,4.90
2019-03-09T02:55:49.852Z,4.90
2019-03-09T02:58:17.119Z,4.90
2019-03-09T03:00:47.936Z,5.10
2019-03-09T03:03:15.331Z,5.10
2019-03-09T03:05:42.571Z,5.10
2019-03-09T03:08:09.839Z,5.00
2019-03-09T03:10:37.195Z,5.00
2019-03-09T03:13:04.460Z,5.10
2019-03-09T03:15:33.231Z,5.00
2019-03-09T03:18:00.489Z,5.00
2019-03-09T03:20:27.723Z,4.90
2019-03-09T03:22:54.987Z,4.80
2019-03-09T03:25:22.364Z,4.70
2019-03-09T03:27:49.659Z,4.80
2019-03-09T03:30:17.215Z,4.90
2019-03-09T03:32:44.717Z,5.00
2019-03-09T03:35:12.040Z,5.00
2019-03-09T03:37:39.408Z,5.00
2019-03-09T03:40:06.877Z,4.90
2019-03-09T03:42:34.239Z,4.70
2019-03-09T03:45:01.509Z,4.70
2019-03-09T03:47:28.963Z,4.50
2019-03-09T03:49:56.224Z,4.40
2019-03-09T03:52:23.709Z,4.40
2019-03-09T03:54:51.059Z,4.40
2019-03-09T03:57:19.325Z,4.40
2019-03-09T03:59:46.634Z,4.40
2019-03-09T04:02:13.990Z,4.40
2019-03-09T04:04:41.227Z,4.30
2019-03-09T04:07:08.495Z,4.20
2019-03-09T04:09:35.980Z,4.20
2019-03-09T04:12:03.543Z,4.20
2019-03-09T04:14:30.936Z,4.10
2019-03-09T04:16:58.316Z,4.10
2019-03-09T04:19:25.662Z,4.20
2019-03-09T04:21:52.923Z,4.20
2019-03-09T04:24:20.192Z,4.30
2019-03-09T04:26:47.637Z,4.10
2019-03-09T04:29:15.015Z,4.10
2019-03-09T04:31:42.393Z,4.10
2019-03-09T04:34:09.787Z,4.00
2019-03-09T04:36:37.047Z,4.10
2019-03-09T04:39:04.735Z,4.10
2019-03-09T04:41:31.979Z,4.10
2019-03-09T04:43:59.350Z,4.20
2019-03-09T04:46:26.719Z,4.10
2019-03-09T04:48:54.076Z,4.00
2019-03-09T04:51:21.341Z,3.90
2019-03-09T04:53:48.604Z,3.90
2019-03-09T04:56:15.954Z,3.80
2019-03-09T04:58:43.442Z,3.70
2019-03-09T05:01:10.699Z,3.60
2019-03-09T05:03:38.054Z,3.60
2019-03-09T05:06:06.005Z,3.50
2019-03-09T05:08:42.886Z,3.70
2019-03-09T05:11:14.191Z,3.60
2019-03-09T05:13:45.686Z,3.60
2019-03-09T05:16:13.075Z,3.70
2019-03-09T05:18:40.458Z,3.60
2019-03-09T05:21:07.835Z,3.50
2019-03-09T05:23:35.122Z,3.50
2019-03-09T05:26:02.559Z,3.50
2019-03-09T05:28:29.855Z,3.60
2019-03-09T05:30:57.199Z,3.70
2019-03-09T05:33:24.451Z,3.70
2019-03-09T05:35:51.789Z,3.70
2019-03-09T05:38:19.231Z,3.80
2019-03-09T05:40:46.723Z,3.90
2019-03-09T05:43:14.090Z,3.90
2019-03-09T05:45:41.344Z,4.00
2019-03-09T05:48:08.695Z,4.00
2019-03-09T05:50:36.072Z,4.00
2019-03-09T05:53:08.799Z,4.00
2019-03-09T05:55:36.158Z,4.10
2019-03-09T05:58:03.519Z,4.00
2019-03-09T06:00:31.314Z,4.10
2019-03-09T06:02:58.610Z,4.20
2019-03-09T06:05:40.183Z,4.30
2019-03-09T06:08:07.945Z,4.30
2019-03-09T06:10:35.367Z,4.40
2019-03-09T06:13:02.961Z,4.40
2019-03-09T06:15:30.343Z,4.40
2019-03-09T06:17:57.620Z,4.40
2019-03-09T06:20:25.006Z,4.40
2019-03-09T06:22:52.239Z,4.40
2019-03-09T06:25:19.673Z,4.40
2019-03-09T06:27:47.037Z,4.40
2019-03-09T06:30:14.790Z,4.40
2019-03-09T06:33:18.616Z,4.70
2019-03-09T06:35:47.743Z,5.00
2019-03-09T06:38:33.761Z,5.10
2019-03-09T06:41:03.209Z,5.20
2019-03-09T06:43:30.339Z,5.30
2019-03-09T06:45:57.696Z,5.40
2019-03-09T06:48:25.140Z,5.60
2019-03-09T06:50:52.503Z,6.00
2019-03-09T06:53:19.859Z,6.30
2019-03-09T06:55:47.246Z,6.50
2019-03-09T06:58:14.616Z,6.80
2019-03-09T07:00:43.002Z,6.90
2019-03-09T07:03:10.770Z,6.90
2019-03-09T07:05:38.038Z,6.80
2019-03-09T07:08:05.321Z,6.70
2019-03-09T07:10:32.580Z,6.80
2019-03-09T07:12:59.929Z,6.90
2019-03-09T07:15:29.627Z,6.90
2019-03-09T07:18:08.494Z,7.10
2019-03-09T07:20:35.918Z,7.60
2019-03-09T07:23:03.414Z,8.20
2019-03-09T07:25:30.763Z,8.60
2019-03-09T07:28:08.580Z,8.80
2019-03-09T07:30:35.842Z,9.40
2019-03-09T07:33:03.545Z,9.60
2019-03-09T07:35:30.918Z,9.70
2019-03-09T07:37:58.384Z,9.50
2019-03-09T07:40:25.671Z,9.70
2019-03-09T07:42:52.944Z,9.60
2019-03-09T07:45:20.214Z,9.40
2019-03-09T07:47:47.580Z,9.30
2019-03-09T07:50:14.956Z,9.20
2019-03-09T07:52:42.190Z,9.40
2019-03-09T07:55:10.903Z,9.40
2019-03-09T07:57:38.143Z,9.40
2019-03-09T08:00:08.303Z,9.40
2019-03-09T08:02:36.476Z,9.40
2019-03-09T08:05:04.281Z,9.30
2019-03-09T08:07:31.626Z,9.30
2019-03-09T08:09:58.990Z,9.40
2019-03-09T08:12:26.243Z,9.70
2019-03-09T08:14:53.536Z,9.90
2019-03-09T08:17:21.071Z,9.90
2019-03-09T08:19:48.426Z,10.00
2019-03-09T08:22:15.693Z,9.90
2019-03-09T08:24:43.067Z,10.00
2019-03-09T08:27:10.434Z,9.90
2019-03-09T08:29:37.717Z,10.10
2019-03-09T08:32:05.218Z,10.10
2019-03-09T08:34:32.478Z,10.30
2019-03-09T08:36:59.727Z,10.20
2019-03-09T08:39:26.989Z,10.40
2019-03-09T08:41:54.351Z,10.30
2019-03-09T08:44:21.695Z,10.60
2019-03-09T08:46:49.148Z,10.50
2019-03-09T08:49:16.428Z,10.30
2019-03-09T08:51:43.762Z,10.10
2019-03-09T08:54:11.114Z,10.20
2019-03-09T08:56:38.503Z,10.20
2019-03-09T08:59:05.855Z,10.10
2019-03-09T09:01:33.295Z,10.10
2019-03-09T09:04:01.558Z,10.10
2019-03-09T09:06:28.815Z,9.90
2019-03-09T09:08:56.300Z,10.00
2019-03-09T09:11:23.652Z,10.00
2019-03-09T09:13:51.027Z,9.70
2019-03-09T09:16:18.295Z,9.70
2019-03-09T09:18:45.579Z,9.90
2019-03-09T09:21:12.919Z,9.90
2019-03-09T09:23:40.278Z,10.00
2019-03-09T09:26:07.671Z,10.20
2019-03-09T09:28:35.045Z,10.20
2019-03-09T09:31:02.315Z,10.20
2019-03-09T09:33:29.687Z,10.20
2019-03-09T09:35:57.058Z,10.10
2019-03-09T09:38:24.422Z,10.00
2019-03-09T09:40:51.766Z,10.00
2019-03-09T09:43:19.060Z,9.80
2019-03-09T09:45:46.451Z,9.60
2019-03-09T09:48:13.803Z,9.40
2019-03-09T09:50:41.029Z,9.40
2019-03-09T09:53:08.274Z,9.40
2019-03-09T09:55:36.373Z,9.60
2019-03-09T09:58:03.625Z,9.30
2019-03-09T10:00:30.914Z,9.00
2019-03-09T10:02:58.262Z,9.10
2019-03-09T10:05:25.619Z,9.00
2019-03-09T10:07:53.075Z,9.00
2019-03-09T10:10:20.457Z,9.00
2019-03-09T10:12:47.703Z,9.10
2019-03-09T10:15:20.027Z,9.20
2019-03-09T10:17:47.333Z,9.30
2019-03-09T10:20:14.605Z,9.50
2019-03-09T10:22:41.983Z,9.70
2019-03-09T10:25:09.314Z,9.70
2019-03-09T10:27:36.642Z,9.80
2019-03-09T10:30:04.879Z,9.90
2019-03-09T10:32:32.235Z,10.20
2019-03-09T10:34:59.598Z,10.30
2019-03-09T10:37:26.972Z,10.20
2019-03-09T10:39:54.353Z,10.00
2019-03-09T10:42:21.702Z,10.00
2019-03-09T10:44:49.877Z,10.20
2019-03-09T10:47:17.363Z,10.20
2019-03-09T10:49:44.665Z,10.10
2019-03-09T10:52:11.963Z,10.20
2019-03-09T10:54:39.351Z,10.00
2019-03-09T10:57:06.702Z,9.80
2019-03-09T10:59:34.063Z,9.70
2019-03-09T11:02:01.512Z,9.80
2019-03-09T11:04:28.874Z,9.90
2019-03-09T11:06:56.267Z,9.80
2019-03-09T11:09:23.532Z,10.00
2019-03-09T11:11:50.786Z,10.10
2019-03-09T11:14:18.147Z,10.30
2019-03-09T11:16:45.505Z,10.40
2019-03-09T11:19:12.866Z,10.40
2019-03-09T11:21:40.142Z,10.40
2019-03-09T11:24:07.427Z,10.60
2019-03-09T11:26:34.879Z,10.60
2019-03-09T11:29:02.239Z,10.70
2019-03-09T11:31:29.893Z,10.90
2019-03-09T11:33:57.167Z,11.50
2019-03-09T11:36:24.428Z,11.90
2019-03-09T11:38:51.688Z,12.10
2019-03-09T11:41:19.576Z,12.10
2019-03-09T11:43:47.054Z,12.10
2019-03-09T11:46:14.410Z,12.00
2019-03-09T11:48:41.791Z,12.30
2019-03-09T11:51:09.054Z,12.60
2019-03-09T11:53:36.503Z,12.60
2019-03-09T11:56:03.767Z,12.20
2019-03-09T11:58:31.107Z,11.70
2019-03-09T12:00:58.557Z,11.80
2019-03-09T12:03:25.891Z,11.90
2019-03-09T12:05:53.334Z,12.40
2019-03-09T12:08:20.727Z,12.50
2019-03-09T12:10:48.028Z,12.70
2019-03-09T12:13:15.402Z,12.60
2019-03-09T12:15:42.894Z,12.10
2019-03-09T12:18:10.274Z,11.90
2019-03-09T12:20:37.701Z,11.90
2019-03-09T12:23:16.910Z,11.90
2019-03-09T12:25:44.346Z,12.00
2019-03-09T12:28:11.598Z,11.90
2019-03-09T12:30:38.975Z,11.90
2019-03-09T12:33:06.366Z,11.90
2019-03-09T12:35:33.738Z,12.30
2019-03-09T12:38:01.122Z,12.60
2019-03-09T12:40:28.494Z,12.70
2019-03-09T12:42:55.759Z,12.30
2019-03-09T12:45:23.125Z,12.20
2019-03-09T12:47:50.385Z,12.10
2019-03-09T12:50:17.804Z,12.20
2019-03-09T12:52:45.070Z,12.40
2019-03-09T12:55:12.414Z,12.50
2019-03-09T12:57:39.683Z,12.40
2019-03-09T13:00:09.675Z,12.20
2019-03-09T13:02:37.070Z,12.10
2019-03-09T13:05:04.770Z,12.00
2019-03-09T13:07:32.286Z,12.50
2019-03-09T13:09:59.664Z,12.80
2019-03-09T13:12:27.105Z,12.80
2019-03-09T13:14:54.356Z,12.70
2019-03-09T13:17:21.705Z,12.70
2019-03-09T13:19:49.061Z,12.60
2019-03-09T13:22:16.306Z,12.50
2019-03-09T13:24:43.576Z,12.30
2019-03-09T13:27:10.975Z,12.20
2019-03-09T13:29:38.231Z,12.10
2019-03-09T13:32:05.469Z,12.20
2019-03-09T13:34:32.826Z,12.10
2019-03-09T13:37:00.192Z,12.20
2019-03-09T13:39:27.663Z,12.30
2019-03-09T13:41:54.927Z,12.60
2019-03-09T13:44:22.197Z,12.60
2019-03-09T13:46:49.452Z,12.70
2019-03-09T13:49:16.801Z,12.80
2019-03-09T13:51:44.058Z,12.80
2019-03-09T13:54:11.335Z,13.00
2019-03-09T13:56:38.618Z,13.10
2019-03-09T13:59:06.177Z,13.10
2019-03-09T14:01:33.519Z,12.80
2019-03-09T14:04:00.783Z,12.80
2019-03-09T14:06:28.119Z,12.80
2019-03-09T14:08:55.486Z,12.80
2019-03-09T14:11:23.959Z,12.80
2019-03-09T14:13:51.323Z,12.40
2019-03-09T14:16:18.546Z,12.10
2019-03-09T14:18:45.807Z,11.90
2019-03-09T14:21:13.161Z,11.80
2019-03-09T14:23:40.535Z,11.80
2019-03-09T14:26:08.115Z,11.80
2019-03-09T14:28:35.367Z,11.60
2019-03-09T14:31:02.711Z,11.60
2019-03-09T14:33:30.110Z,11.70
2019-03-09T14:35:57.463Z,11.80
2019-03-09T14:38:24.747Z,11.80
2019-03-09T14:40:52.014Z,11.90
2019-03-09T14:43:19.390Z,12.10
2019-03-09T14:45:46.737Z,12.10
2019-03-09T14:48:13.983Z,12.00
2019-03-09T14:50:41.361Z,12.10
2019-03-09T14:53:08.599Z,12.00
2019-03-09T14:55:35.843Z,11.80
2019-03-09T14:58:03.199Z,11.70
2019-03-09T15:00:30.525Z,11.90
2019-03-09T15:02:57.760Z,11.80
2019-03-09T15:05:25.099Z,11.90
2019-03-09T15:07:52.450Z,11.90
2019-03-09T15:10:19.911Z,12.00
2019-03-09T15:12:48.063Z,12.00
2019-03-09T15:15:15.435Z,11.90
2019-03-09T15:17:42.799Z,11.90
2019-03-09T15:20:10.248Z,11.80
2019-03-09T15:22:37.631Z,11.80
2019-03-09T15:25:06.136Z,11.80
2019-03-09T15:27:34.417Z,11.90
2019-03-09T15:30:01.851Z,12.00
2019-03-09T15:32:29.217Z,12.00
2019-03-09T15:34:56.476Z,12.10
2019-03-09T15:37:23.787Z,12.10
2019-03-09T15:39:51.166Z,11.80
2019-03-09T15:42:18.436Z,11.60
2019-03-09T15:44:45.666Z,11.40
2019-03-09T15:47:12.934Z,11.30
2019-03-09T15:49:40.291Z,11.40
2019-03-09T15:52:07.670Z,11.50
2019-03-09T15:54:35.214Z,11.50
2019-03-09T15:57:02.654Z,11.50
2019-03-09T15:59:30.256Z,11.60
2019-03-09T16:01:57.742Z,11.60
2019-03-09T16:04:25.001Z,11.50
2019-03-09T16:06:52.267Z,11.60
2019-03-09T16:09:19.533Z,11.60
2019-03-09T16:11:46.903Z,11.50
2019-03-09T16:14:14.463Z,11.40
2019-03-09T16:16:41.723Z,11.30
2019-03-09T16:19:09.083Z,11.50
2019-03-09T16:21:36.424Z,11.40
2019-03-09T16:24:03.802Z,11.30
2019-03-09T16:26:31.063Z,11.30
2019-03-09T16:28:59.139Z,11.20
2019-03-09T16:31:26.511Z,11.30
2019-03-09T16:33:53.905Z,11.20
2019-03-09T16:36:21.249Z,11.10
2019-03-09T16:38:48.495Z,11.30
2019-03-09T16:41:15.839Z,11.50
2019-03-09T16:43:43.130Z,11.30
2019-03-09T16:46:10.511Z,11.40
2019-03-09T16:48:37.910Z,11.10
2019-03-09T16:51:05.154Z,11.20
2019-03-09T16:53:32.531Z,11.10
2019-03-09T16:55:59.893Z,11.20
2019-03-09T16:58:27.154Z,11.30
2019-03-09T17:00:54.550Z,11.30
2019-03-09T17:03:21.987Z,11.30
2019-03-09T17:05:49.333Z,11.20
2019-03-09T17:08:16.598Z,11.30
2019-03-09T17:10:43.943Z,11.30
2019-03-09T17:13:11.314Z,11.30
2019-03-09T17:15:38.914Z,11.10
2019-03-09T17:18:06.166Z,11.20
2019-03-09T17:20:33.519Z,11.40
2019-03-09T17:23:00.903Z,11.30
2019-03-09T17:25:28.285Z,11.40
2019-03-09T17:27:55.650Z,11.40
2019-03-09T17:30:23.036Z,11.40
2019-03-09T17:32:50.392Z,11.30
2019-03-09T17:35:17.735Z,11.20
2019-03-09T17:37:45.101Z,11.20
2019-03-09T17:40:12.679Z,10.90
2019-03-09T17:42:39.955Z,10.70
2019-03-09T17:45:12.887Z,10.50
2019-03-09T17:47:40.243Z,10.50
2019-03-09T17:50:09.019Z,10.40
2019-03-09T17:52:36.382Z,10.40
2019-03-09T17:55:04.017Z,10.40
2019-03-09T17:57:31.258Z,10.40
2019-03-09T17:59:58.528Z,10.40
2019-03-09T18:02:26.037Z,10.20
2019-03-09T18:04:53.327Z,10.30
2019-03-09T18:07:20.695Z,10.40
2019-03-09T18:09:48.174Z,10.20
2019-03-09T18:12:15.414Z,10.30
2019-03-09T18:14:42.671Z,10.30
2019-03-09T18:17:10.923Z,10.40
2019-03-09T18:19:38.200Z,10.40
2019-03-09T18:22:05.567Z,10.60
2019-03-09T18:24:32.954Z,10.60
2019-03-09T18:27:00.404Z,10.50
2019-03-09T18:29:27.666Z,10.50
2019-03-09T18:31:54.919Z,10.30
2019-03-09T18:34:22.228Z,10.40
2019-03-09T18:36:49.655Z,10.50
2019-03-09T18:39:17.071Z,10.50
2019-03-09T18:41:44.319Z,10.60
2019-03-09T18:44:11.694Z,10.60
2019-03-09T18:46:39.084Z,10.60
2019-03-09T18:49:06.359Z,10.40
2019-03-09T18:51:33.784Z,10.10
2019-03-09T18:54:01.418Z,10.00
2019-03-09T18:56:28.802Z,9.90
2019-03-09T18:58:56.351Z,9.90
2019-03-09T19:01:23.732Z,9.80
2019-03-09T19:03:51.084Z,9.80
2019-03-09T19:06:18.554Z,9.80
2019-03-09T19:08:45.915Z,9.90
2019-03-09T19:11:13.314Z,9.80
2019-03-09T19:13:40.582Z,10.00
2019-03-09T19:16:07.869Z,10.10
2019-03-09T19:18:36.023Z,10.10
2019-03-09T19:21:03.317Z,9.90
2019-03-09T19:23:30.674Z,10.00
2019-03-09T19:25:58.821Z,10.00
2019-03-09T19:28:26.203Z,10.00
2019-03-09T19:30:53.467Z,10.20
2019-03-09T19:33:20.706Z,10.00
2019-03-09T19:35:47.970Z,9.90
2019-03-09T19:38:15.211Z,9.90
2019-03-09T19:40:42.589Z,10.10
2019-03-09T19:43:09.962Z,10.00
2019-03-09T19:45:37.234Z,9.90
2019-03-09T19:48:04.619Z,9.80
2019-03-09T19:50:31.893Z,9.90
2019-03-09T19:52:59.434Z,9.80
2019-03-09T19:55:27.126Z,9.70
2019-03-09T19:57:54.402Z,9.60
2019-03-09T20:00:21.904Z,9.40
2019-03-09T20:02:49.315Z,9.30
2019-03-09T20:05:16.986Z,9.30
2019-03-09T20:07:44.515Z,9.30
2019-03-09T20:10:12.631Z,9.30
2019-03-09T20:12:39.902Z,9.30
2019-03-09T20:15:08.751Z,9.30
2019-03-09T20:17:36.122Z,9.30
2019-03-09T20:20:03.815Z,9.30
2019-03-09T20:22:31.551Z,9.30
2019-03-09T20:24:58.782Z,9.30
2019-03-09T20:27:26.165Z,9.40
2019-03-09T20:29:53.626Z,9.50
2019-03-09T20:32:20.966Z,9.60
2019-03-09T20:34:48.215Z,9.60
2019-03-09T20:37:15.495Z,9.60
2019-03-09T20:39:42.744Z,9.70
2019-03-09T20:42:10.126Z,9.70
2019-03-09T20:44:37.482Z,9.80
2019-03-09T20:47:04.832Z,9.70
2019-03-09T20:49:32.082Z,9.80
2019-03-09T20:51:59.355Z,9.70
2019-03-09T20:54:26.688Z,9.80
2019-03-09T20:56:53.937Z,9.90
2019-03-09T20:59:21.295Z,9.80
2019-03-09T21:01:48.643Z,9.80
2019-03-09T21:04:16.011Z,9.90
2019-03-09T21:06:43.367Z,10.00
2019-03-09T21:09:10.720Z,9.90
2019-03-09T21:11:38.084Z,10.00
2019-03-09T21:14:05.340Z,10.00
2019-03-09T21:16:32.635Z,10.00
2019-03-09T21:19:00.002Z,10.10
2019-03-09T21:21:27.355Z,10.10
2019-03-09T21:23:54.698Z,10.10
2019-03-09T21:26:21.968Z,10.00
2019-03-09T21:29:08.815Z,9.90
2019-03-09T21:31:37.753Z,9.80
2019-03-09T21:34:05.406Z,9.90
2019-03-09T21:36:32.776Z,10.00
2019-03-09T21:39:00.134Z,10.00
2019-03-09T21:41:27.567Z,10.00
2019-03-09T21:43:54.932Z,10.10
2019-03-09T21:46:22.306Z,10.10
2019-03-09T21:48:50.671Z,10.10
2019-03-09T21:51:18.238Z,10.20
2019-03-09T21:53:45.485Z,10.20
2019-03-09T21:56:12.846Z,10.20
2019-03-09T21:58:40.203Z,10.30
2019-03-09T22:01:07.595Z,10.30
2019-03-09T22:03:34.874Z,10.30
2019-03-09T22:06:06.128Z,10.30
2019-03-09T22:08:31.379Z,10.30
2019-03-09T22:10:58.631Z,10.30
2019-03-09T22:13:26.003Z,10.30
2019-03-09T22:15:53.368Z,10.30
2019-03-09T22:18:20.748Z,10.40
2019-03-09T22:20:49.012Z,10.40
2019-03-09T22:23:16.350Z,10.40
2019-03-09T22:25:43.618Z,10.50
2019-03-09T22:28:11.083Z,10.60
2019-03-09T22:30:38.442Z,10.30
2019-03-09T22:33:05.915Z,9.70
2019-03-09T22:35:33.200Z,9.00
2019-03-09T22:38:00.428Z,8.40
2019-03-09T22:40:27.898Z,7.90
2019-03-09T22:42:55.284Z,7.60
2019-03-09T22:45:22.714Z,7.60
2019-03-09T22:47:49.982Z,7.70
2019-03-09T22:50:17.278Z,7.70
2019-03-09T22:52:44.846Z,7.70
2019-03-09T22:55:12.126Z,7.60
2019-03-09T22:57:39.529Z,7.70
2019-03-09T23:00:09.314Z,7.70
2019-03-09T23:02:36.715Z,7.70
2019-03-09T23:05:04.375Z,7.70
2019-03-09T23:07:31.748Z,7.90
2019-03-09T23:10:00.116Z,7.90
2019-03-09T23:12:27.680Z,7.80
2019-03-09T23:14:55.010Z,7.70
2019-03-09T23:17:22.256Z,7.60
2019-03-09T23:19:49.610Z,7.50
2019-03-09T23:22:17.861Z,7.50
2019-03-09T23:24:45.251Z,7.40
2019-03-09T23:27:12.519Z,7.50
2019-03-09T23:29:39.863Z,7.50
2019-03-09T23:32:07.231Z,7.50
2019-03-09T23:34:34.583Z,7.60
2019-03-09T23:37:01.958Z,7.60
2019-03-09T23:39:29.223Z,7.60
2019-03-09T23:41:56.466Z,7.60
2019-03-09T23:44:23.823Z,7.50
2019-03-09T23:46:51.170Z,7.50
2019-03-09T23:49:18.544Z,7.60
2019-03-09T23:51:45.894Z,7.60
2019-03-09T23:54:13.150Z,7.60
2019-03-09T23:56:40.511Z,7.70
2019-03-09T23:59:07.740Z,7.70
